createdAt,value
2018-07-19T18:47:41.522Z,27.73
2018-07-19T18:50:10.882Z,27.48
2018-07-19T18:52:40.704Z,27.33
2018-07-19T18:55:10.073Z,27.20
2018-07-19T18:57:39.792Z,27.16
2018-07-19T19:00:08.746Z,27.11
2018-07-19T19:02:37.441Z,27.04
2018-07-19T19:05:06.627Z,26.97
2018-07-19T19:07:35.948Z,26.86
2018-07-19T19:10:05.613Z,26.69
2018-07-19T19:12:34.808Z,26.57
2018-07-19T19:15:03.857Z,26.51
2018-07-19T19:17:33.296Z,26.45
2018-07-19T19:20:02.409Z,26.36
2018-07-19T19:22:31.185Z,26.25
2018-07-19T19:24:59.854Z,26.13
2018-07-19T19:27:28.691Z,26.06
2018-07-19T19:29:58.173Z,25.99
2018-07-19T19:32:27.375Z,25.96
2018-07-19T19:34:56.557Z,25.91
2018-07-19T19:37:26.851Z,25.81
2018-07-19T19:39:55.869Z,25.71
2018-07-19T19:42:24.930Z,25.63
2018-07-19T19:44:53.574Z,25.52
2018-07-19T19:47:23.984Z,25.41
2018-07-19T19:49:54.686Z,25.32
2018-07-19T19:52:23.915Z,25.28
2018-07-19T19:54:53.457Z,25.23
2018-07-19T19:57:23.234Z,25.19
2018-07-19T19:59:52.143Z,25.11
2018-07-19T20:02:21.025Z,25.10
2018-07-19T20:04:49.700Z,25.04
2018-07-19T20:07:18.326Z,24.93
2018-07-19T20:09:47.304Z,24.82
2018-07-19T20:12:16.816Z,24.76
2018-07-19T20:14:45.471Z,24.70
2018-07-19T20:17:14.499Z,24.66
2018-07-19T20:19:43.474Z,24.57
2018-07-19T20:22:12.158Z,24.54
2018-07-19T20:24:41.339Z,24.46
2018-07-19T20:27:10.222Z,24.40
2018-07-19T20:29:45.535Z,24.38
2018-07-19T20:32:14.305Z,24.30
2018-07-19T20:34:42.969Z,24.25
2018-07-19T20:37:11.660Z,24.18
2018-07-19T20:39:40.337Z,24.15
2018-07-19T20:58:23.436Z,23.72
2018-07-19T21:00:51.597Z,23.63
2018-07-19T21:03:19.265Z,23.56
2018-07-19T21:05:46.866Z,23.49
2018-07-19T21:08:14.656Z,23.49
2018-07-19T21:10:42.480Z,23.43
2018-07-19T21:13:10.138Z,23.34
2018-07-19T21:15:37.919Z,23.33
2018-07-19T21:18:05.638Z,23.32
2018-07-19T21:20:33.255Z,23.28
2018-07-19T21:23:00.910Z,23.20
2018-07-19T21:25:30.071Z,23.12
2018-07-19T21:27:57.818Z,23.03
2018-07-19T21:30:25.900Z,23.01
2018-07-19T21:32:53.883Z,22.98
2018-07-19T21:35:21.770Z,22.94
2018-07-19T21:37:49.601Z,22.93
2018-07-19T21:40:17.852Z,22.88
2018-07-19T21:42:45.361Z,22.78
2018-07-19T21:45:12.848Z,22.72
2018-07-19T21:47:40.380Z,22.65
2018-07-19T21:50:09.223Z,22.61
2018-07-19T21:52:36.886Z,22.55
2018-07-19T21:55:04.465Z,22.50
2018-07-19T21:57:32.180Z,22.49
2018-07-19T21:59:59.697Z,22.43
2018-07-19T22:02:27.254Z,22.45
2018-07-19T22:04:55.064Z,22.44
2018-07-19T22:07:22.638Z,22.42
2018-07-19T22:09:50.186Z,22.39
2018-07-19T22:12:18.296Z,22.35
2018-07-19T22:14:46.147Z,22.35
2018-07-19T22:17:13.664Z,22.28
2018-07-19T22:19:41.438Z,22.22
2018-07-19T22:22:09.325Z,22.15
2018-07-19T22:24:37.019Z,22.06
2018-07-19T22:27:04.684Z,22.02
2018-07-19T22:29:32.699Z,22.00
2018-07-19T22:32:01.461Z,21.96
2018-07-19T22:34:29.091Z,21.96
2018-07-19T22:36:56.740Z,21.96
2018-07-19T22:39:24.531Z,21.91
2018-07-19T22:41:52.208Z,21.87
2018-07-19T22:44:19.761Z,21.82
2018-07-19T22:46:47.398Z,21.79
2018-07-19T22:49:14.926Z,21.73
2018-07-19T22:51:42.382Z,21.67
2018-07-19T22:54:09.877Z,21.58
2018-07-19T22:56:37.527Z,21.51
2018-07-19T22:59:05.271Z,21.46
2018-07-19T23:01:33.767Z,21.42
2018-07-19T23:04:01.414Z,21.40
2018-07-19T23:06:30.010Z,21.41
2018-07-19T23:08:57.345Z,21.43
2018-07-19T23:11:24.947Z,21.39
2018-07-19T23:13:52.497Z,21.35
2018-07-19T23:16:20.577Z,21.36
2018-07-19T23:18:48.302Z,21.33
2018-07-19T23:21:15.758Z,21.32
2018-07-19T23:23:44.505Z,21.30
2018-07-19T23:26:12.207Z,21.30
2018-07-19T23:28:39.626Z,21.26
2018-07-19T23:31:07.420Z,21.25
2018-07-19T23:33:35.103Z,21.20
2018-07-19T23:36:07.490Z,21.14
2018-07-19T23:39:18.343Z,21.10
2018-07-19T23:41:53.232Z,21.06
2018-07-19T23:44:25.305Z,21.01
2018-07-19T23:46:57.636Z,20.97
2018-07-19T23:49:25.548Z,21.00
2018-07-19T23:51:53.572Z,20.95
2018-07-19T23:54:20.980Z,20.88
2018-07-19T23:56:48.510Z,20.80
2018-07-19T23:59:16.345Z,20.75
